N514DV KSBY-KORL
Flight info
| Callsign | N514DV |
|---|---|
| Flight time | 1h 56m |
| Altitude | 43000 |
| Route | TRPOD Q409 CRPLR Q85 LPERD TTHOR3 |
| Aircraft | LJ35/M-SBDFGRWY/L |
Departure
| Time | 2026-05-04 23:43 |
|---|---|
| Airport | Salisbury Ocean City Wicomico Regional Airport (KSBY) |
Arrival
| Time | 2026-05-05 01:39 |
|---|---|
| Airport | Orlando Executive Airport (KORL) |
| Time | Latitude | Longitude | Altitude | Speed | Heading |
|---|---|---|---|---|---|
| 2026-05-04 22:43 | 38.33713 | -75.51988 | 50 ft | 0 kts | 285° |
| 2026-05-04 23:38 | 38.33714 | -75.51989 | 50 ft | 0 kts | 296° |
| 2026-05-04 23:38 | 38.33723 | -75.51996 | 50 ft | 3 kts | 344° |
| 2026-05-04 23:38 | 38.33739 | -75.51997 | 50 ft | 0 kts | 9° |
| 2026-05-04 23:38 | 38.33779 | -75.51972 | 50 ft | 12 kts | 36° |
| 2026-05-04 23:39 | 38.33853 | -75.51902 | 50 ft | 15 kts | 36° |
| 2026-05-04 23:39 | 38.33902 | -75.51848 | 51 ft | 8 kts | 65° |
| 2026-05-04 23:39 | 38.33957 | -75.51797 | 51 ft | 12 kts | 33° |
| 2026-05-04 23:39 | 38.34022 | -75.51717 | 51 ft | 15 kts | 52° |
| 2026-05-04 23:40 | 38.34108 | -75.51624 | 50 ft | 18 kts | 36° |
| 2026-05-04 23:40 | 38.34186 | -75.51552 | 52 ft | 14 kts | 36° |
| 2026-05-04 23:40 | 38.34278 | -75.51473 | 53 ft | 16 kts | 33° |
| 2026-05-04 23:40 | 38.34351 | -75.51476 | 53 ft | 13 kts | 313° |
| 2026-05-04 23:41 | 38.34412 | -75.51579 | 52 ft | 16 kts | 306° |
| 2026-05-04 23:41 | 38.34486 | -75.51705 | 52 ft | 16 kts | 308° |
| 2026-05-04 23:41 | 38.34553 | -75.51706 | 51 ft | 12 kts | 39° |
| 2026-05-04 23:41 | 38.34598 | -75.51652 | 51 ft | 1 kts | 69° |
| 2026-05-04 23:42 | 38.34596 | -75.51644 | 52 ft | 1 kts | 132° |
| 2026-05-04 23:42 | 38.34551 | -75.51576 | 50 ft | 34 kts | 128° |
| 2026-05-04 23:42 | 38.34228 | -75.51032 | 51 ft | 121 kts | 126° |
| 2026-05-04 23:42 | 38.33588 | -75.49909 | 421 ft | 168 kts | 127° |
| 2026-05-04 23:43 | 38.32945 | -75.48700 | 1736 ft | 166 kts | 128° |
| 2026-05-04 23:43 | 38.32338 | -75.47373 | 2824 ft | 182 kts | 126° |
| 2026-05-04 23:43 | 38.31654 | -75.45831 | 3563 ft | 216 kts | 126° |
| 2026-05-04 23:43 | 38.31069 | -75.43943 | 4469 ft | 248 kts | 100° |
| 2026-05-04 23:44 | 38.31401 | -75.41702 | 5508 ft | 271 kts | 62° |
| 2026-05-04 23:44 | 38.32672 | -75.39943 | 6687 ft | 274 kts | 27° |
| 2026-05-04 23:44 | 38.34472 | -75.39272 | 7852 ft | 273 kts | 356° |
| 2026-05-04 23:44 | 38.36271 | -75.39870 | 9097 ft | 267 kts | 325° |
| 2026-05-04 23:45 | 38.37536 | -75.41541 | 10307 ft | 268 kts | 297° |
| 2026-05-04 23:45 | 38.37985 | -75.43876 | 11208 ft | 283 kts | 270° |
| 2026-05-04 23:45 | 38.37459 | -75.46375 | 11943 ft | 309 kts | 245° |
| 2026-05-04 23:45 | 38.36079 | -75.48525 | 12007 ft | 317 kts | 222° |
| 2026-05-04 23:46 | 38.34382 | -75.50289 | 12005 ft | 315 kts | 224° |
| 2026-05-04 23:46 | 38.32872 | -75.52301 | 12004 ft | 314 kts | 236° |
| 2026-05-04 23:46 | 38.31676 | -75.54627 | 12001 ft | 316 kts | 238° |
| 2026-05-04 23:46 | 38.30766 | -75.56077 | 12005 ft | 318 kts | 230° |
| 2026-05-04 23:47 | 38.29084 | -75.57917 | 12003 ft | 321 kts | 218° |
| 2026-05-04 23:47 | 38.26553 | -75.59912 | 12031 ft | 321 kts | 214° |
| 2026-05-04 23:47 | 38.25272 | -75.60874 | 12550 ft | 321 kts | 215° |
| 2026-05-04 23:47 | 38.23421 | -75.62425 | 13998 ft | 318 kts | 219° |
| 2026-05-04 23:48 | 38.21606 | -75.64090 | 15015 ft | 326 kts | 219° |
| 2026-05-04 23:48 | 38.19729 | -75.65770 | 16057 ft | 333 kts | 218° |
| 2026-05-04 23:48 | 38.17785 | -75.67429 | 17114 ft | 340 kts | 217° |
| 2026-05-04 23:48 | 38.15808 | -75.69123 | 18170 ft | 346 kts | 217° |
| 2026-05-04 23:49 | 38.13808 | -75.70869 | 19105 ft | 351 kts | 217° |
| 2026-05-04 23:49 | 38.11777 | -75.72640 | 20072 ft | 356 kts | 217° |
| 2026-05-04 23:49 | 38.09718 | -75.74422 | 21055 ft | 361 kts | 217° |
| 2026-05-04 23:49 | 38.07629 | -75.76228 | 22040 ft | 366 kts | 217° |
| 2026-05-04 23:50 | 38.05515 | -75.78061 | 23024 ft | 371 kts | 218° |
| 2026-05-04 23:50 | 38.03376 | -75.79918 | 23960 ft | 374 kts | 218° |
| 2026-05-04 23:50 | 38.01216 | -75.81784 | 24804 ft | 377 kts | 219° |
| 2026-05-04 23:50 | 37.99037 | -75.83664 | 25619 ft | 381 kts | 219° |
| 2026-05-04 23:51 | 37.96834 | -75.85572 | 26383 ft | 386 kts | 219° |
| 2026-05-04 23:51 | 37.94603 | -75.87498 | 27122 ft | 390 kts | 219° |
| 2026-05-04 23:51 | 37.92344 | -75.89442 | 27841 ft | 394 kts | 219° |
| 2026-05-04 23:51 | 37.90065 | -75.91403 | 28537 ft | 399 kts | 219° |
| 2026-05-04 23:52 | 37.87760 | -75.93390 | 29206 ft | 403 kts | 219° |
| 2026-05-04 23:52 | 37.85435 | -75.95391 | 29859 ft | 406 kts | 219° |
| 2026-05-04 23:52 | 37.83053 | -75.97438 | 30418 ft | 410 kts | 219° |
| 2026-05-04 23:52 | 37.80678 | -75.99476 | 30915 ft | 414 kts | 219° |
| 2026-05-04 23:53 | 37.78297 | -76.01517 | 31518 ft | 414 kts | 218° |
| 2026-05-04 23:53 | 37.75904 | -76.03570 | 31994 ft | 417 kts | 218° |
| 2026-05-04 23:53 | 37.73462 | -76.05665 | 32457 ft | 421 kts | 218° |
| 2026-05-04 23:53 | 37.71058 | -76.07722 | 32905 ft | 424 kts | 218° |
| 2026-05-04 23:54 | 37.68608 | -76.09817 | 33314 ft | 426 kts | 218° |
| 2026-05-04 23:54 | 37.66145 | -76.11922 | 33662 ft | 429 kts | 218° |
| 2026-05-04 23:54 | 37.63663 | -76.14042 | 34007 ft | 432 kts | 218° |
| 2026-05-04 23:54 | 37.61163 | -76.16173 | 34226 ft | 436 kts | 218° |
| 2026-05-04 23:55 | 37.58522 | -76.18216 | 34439 ft | 441 kts | 214° |
| 2026-05-04 23:55 | 37.55890 | -76.20205 | 34677 ft | 442 kts | 215° |
| 2026-05-04 23:55 | 37.50624 | -76.24244 | 35014 ft | 444 kts | 215° |
| 2026-05-04 23:56 | 37.47969 | -76.26244 | 35134 ft | 445 kts | 215° |
| 2026-05-04 23:56 | 37.42690 | -76.30242 | 35286 ft | 446 kts | 215° |
| 2026-05-04 23:57 | 37.37417 | -76.34223 | 36177 ft | 426 kts | 216° |
| 2026-05-04 23:57 | 37.34944 | -76.36077 | 37544 ft | 401 kts | 216° |
| 2026-05-04 23:57 | 37.32622 | -76.37835 | 38843 ft | 379 kts | 217° |
| 2026-05-04 23:57 | 37.30414 | -76.39513 | 39690 ft | 367 kts | 217° |
| 2026-05-04 23:58 | 37.28214 | -76.41184 | 39912 ft | 371 kts | 217° |
| 2026-05-04 23:58 | 37.25999 | -76.42850 | 40256 ft | 371 kts | 217° |
| 2026-05-04 23:58 | 37.23783 | -76.44510 | 40598 ft | 371 kts | 217° |
| 2026-05-04 23:58 | 37.21573 | -76.46173 | 40925 ft | 371 kts | 217° |
| 2026-05-04 23:59 | 37.19362 | -76.47837 | 41247 ft | 371 kts | 217° |
| 2026-05-04 23:59 | 37.17149 | -76.49501 | 41538 ft | 371 kts | 217° |
| 2026-05-04 23:59 | 37.14941 | -76.51156 | 41925 ft | 369 kts | 217° |
| 2026-05-04 23:59 | 37.12733 | -76.52813 | 42174 ft | 371 kts | 217° |
| 2026-05-05 00:00 | 37.10516 | -76.54475 | 42455 ft | 371 kts | 217° |
| 2026-05-05 00:00 | 37.09770 | -76.55034 | 42558 ft | 371 kts | 217° |
| 2026-05-05 00:00 | 37.06087 | -76.57791 | 42964 ft | 373 kts | 217° |
| 2026-05-05 00:01 | 37.01551 | -76.61189 | 42968 ft | 387 kts | 217° |
| 2026-05-05 00:01 | 36.96847 | -76.64697 | 42985 ft | 400 kts | 216° |
| 2026-05-05 00:02 | 36.92002 | -76.68307 | 42996 ft | 411 kts | 216° |
| 2026-05-05 00:02 | 36.87033 | -76.72006 | 43015 ft | 420 kts | 216° |
| 2026-05-05 00:03 | 36.81979 | -76.75760 | 43017 ft | 425 kts | 216° |
| 2026-05-05 00:03 | 36.76899 | -76.79520 | 43020 ft | 423 kts | 216° |
| 2026-05-05 00:04 | 36.71845 | -76.83283 | 43008 ft | 423 kts | 216° |
| 2026-05-05 00:04 | 36.66771 | -76.87017 | 43018 ft | 424 kts | 216° |
| 2026-05-05 00:05 | 36.61696 | -76.90779 | 43004 ft | 425 kts | 216° |
| 2026-05-05 00:05 | 36.56597 | -76.94534 | 43005 ft | 426 kts | 216° |
| 2026-05-05 00:06 | 36.51497 | -76.98291 | 42981 ft | 426 kts | 216° |
| 2026-05-05 00:06 | 36.46433 | -77.02015 | 43005 ft | 425 kts | 216° |
| 2026-05-05 00:07 | 36.41309 | -77.05779 | 43009 ft | 426 kts | 216° |
| 2026-05-05 00:07 | 36.36207 | -77.09518 | 43009 ft | 426 kts | 216° |
| 2026-05-05 00:08 | 36.31108 | -77.13250 | 43006 ft | 426 kts | 216° |
| 2026-05-05 00:08 | 36.26009 | -77.16976 | 43003 ft | 425 kts | 216° |
| 2026-05-05 00:09 | 36.20911 | -77.20696 | 43007 ft | 425 kts | 216° |
| 2026-05-05 00:09 | 36.15814 | -77.24411 | 43001 ft | 425 kts | 216° |
| 2026-05-05 00:10 | 36.10709 | -77.28121 | 43007 ft | 426 kts | 215° |
| 2026-05-05 00:10 | 36.05604 | -77.31830 | 43015 ft | 425 kts | 216° |
| 2026-05-05 00:11 | 36.00910 | -77.36133 | 43018 ft | 419 kts | 224° |
| 2026-05-05 00:11 | 35.96320 | -77.40592 | 43021 ft | 420 kts | 223° |
| 2026-05-05 00:12 | 35.91716 | -77.45024 | 43020 ft | 420 kts | 223° |
| 2026-05-05 00:12 | 35.87116 | -77.49477 | 43022 ft | 420 kts | 223° |
| 2026-05-05 00:13 | 35.82503 | -77.53910 | 43027 ft | 420 kts | 223° |
| 2026-05-05 00:13 | 35.77900 | -77.58346 | 43027 ft | 420 kts | 223° |
| 2026-05-05 00:14 | 35.73289 | -77.62769 | 43025 ft | 420 kts | 223° |
| 2026-05-05 00:14 | 35.68679 | -77.67196 | 43025 ft | 421 kts | 223° |
| 2026-05-05 00:15 | 35.64054 | -77.71618 | 43025 ft | 421 kts | 223° |
| 2026-05-05 00:15 | 35.59437 | -77.76039 | 43039 ft | 420 kts | 223° |
| 2026-05-05 00:16 | 35.54821 | -77.80444 | 43042 ft | 420 kts | 223° |
| 2026-05-05 00:16 | 35.50199 | -77.84851 | 43031 ft | 421 kts | 223° |
| 2026-05-05 00:17 | 35.45575 | -77.89251 | 43030 ft | 421 kts | 223° |
| 2026-05-05 00:17 | 35.40948 | -77.93649 | 43030 ft | 421 kts | 223° |
| 2026-05-05 00:18 | 35.36317 | -77.98042 | 43039 ft | 421 kts | 223° |
| 2026-05-05 00:18 | 35.31687 | -78.02433 | 43039 ft | 421 kts | 223° |
| 2026-05-05 00:19 | 35.27052 | -78.06816 | 43038 ft | 421 kts | 223° |
| 2026-05-05 00:19 | 35.22414 | -78.11200 | 43038 ft | 421 kts | 223° |
| 2026-05-05 00:20 | 35.17795 | -78.15557 | 43034 ft | 421 kts | 223° |
| 2026-05-05 00:20 | 35.13138 | -78.19945 | 43054 ft | 421 kts | 223° |
| 2026-05-05 00:21 | 35.08497 | -78.24308 | 43060 ft | 421 kts | 223° |
| 2026-05-05 00:21 | 35.03855 | -78.28671 | 43067 ft | 421 kts | 223° |
| 2026-05-05 00:22 | 34.99209 | -78.33027 | 43068 ft | 421 kts | 223° |
| 2026-05-05 00:22 | 34.94561 | -78.37379 | 43066 ft | 421 kts | 223° |
| 2026-05-05 00:23 | 34.89922 | -78.41718 | 43068 ft | 420 kts | 223° |
| 2026-05-05 00:23 | 34.85285 | -78.46045 | 43061 ft | 420 kts | 222° |
| 2026-05-05 00:24 | 34.81425 | -78.49646 | 43056 ft | 420 kts | 222° |
| 2026-05-05 00:24 | 34.76783 | -78.53969 | 43067 ft | 420 kts | 222° |
| 2026-05-05 00:25 | 34.72143 | -78.58280 | 43072 ft | 420 kts | 222° |
| 2026-05-05 00:25 | 34.67505 | -78.62589 | 43078 ft | 419 kts | 222° |
| 2026-05-05 00:26 | 34.62867 | -78.66888 | 43078 ft | 419 kts | 222° |
| 2026-05-05 00:26 | 34.58193 | -78.71216 | 43088 ft | 420 kts | 222° |
| 2026-05-05 00:27 | 34.53547 | -78.75511 | 43052 ft | 420 kts | 222° |
| 2026-05-05 00:27 | 34.48907 | -78.79790 | 43055 ft | 415 kts | 223° |
| 2026-05-05 00:28 | 34.44370 | -78.83977 | 43043 ft | 405 kts | 223° |
| 2026-05-05 00:28 | 34.39768 | -78.87858 | 43046 ft | 400 kts | 221° |
| 2026-05-05 00:29 | 34.35233 | -78.91729 | 43051 ft | 399 kts | 220° |
| 2026-05-05 00:29 | 34.30648 | -78.95571 | 43058 ft | 404 kts | 220° |
| 2026-05-05 00:30 | 34.26041 | -78.99457 | 43061 ft | 404 kts | 220° |
| 2026-05-05 00:30 | 34.21431 | -79.03326 | 43068 ft | 403 kts | 220° |
| 2026-05-05 00:31 | 34.16833 | -79.07189 | 43066 ft | 403 kts | 220° |
| 2026-05-05 00:31 | 34.12226 | -79.11049 | 43066 ft | 403 kts | 220° |
| 2026-05-05 00:32 | 34.07617 | -79.14909 | 43064 ft | 403 kts | 220° |
| 2026-05-05 00:32 | 34.03004 | -79.18764 | 43067 ft | 404 kts | 220° |
| 2026-05-05 00:33 | 33.98390 | -79.22620 | 43089 ft | 403 kts | 220° |
| 2026-05-05 00:33 | 33.93777 | -79.26471 | 43092 ft | 404 kts | 220° |
| 2026-05-05 00:34 | 33.89127 | -79.30345 | 43093 ft | 404 kts | 220° |
| 2026-05-05 00:34 | 33.84539 | -79.34163 | 43093 ft | 404 kts | 220° |
| 2026-05-05 00:35 | 33.79919 | -79.38004 | 43090 ft | 404 kts | 220° |
| 2026-05-05 00:35 | 33.75289 | -79.41848 | 43061 ft | 404 kts | 220° |
| 2026-05-05 00:36 | 33.70673 | -79.45673 | 43086 ft | 403 kts | 220° |
| 2026-05-05 00:36 | 33.66048 | -79.49503 | 43087 ft | 404 kts | 220° |
| 2026-05-05 00:37 | 33.61420 | -79.53328 | 43086 ft | 404 kts | 220° |
| 2026-05-05 00:37 | 33.56789 | -79.57152 | 43084 ft | 404 kts | 220° |
| 2026-05-05 00:38 | 33.52158 | -79.60972 | 43092 ft | 404 kts | 220° |
| 2026-05-05 00:38 | 33.47526 | -79.64786 | 43088 ft | 403 kts | 220° |
| 2026-05-05 00:39 | 33.42871 | -79.68612 | 43092 ft | 403 kts | 220° |
| 2026-05-05 00:39 | 33.38244 | -79.72415 | 43084 ft | 403 kts | 220° |
| 2026-05-05 00:40 | 33.33645 | -79.76184 | 43090 ft | 404 kts | 220° |
| 2026-05-05 00:40 | 33.28979 | -79.80006 | 43097 ft | 404 kts | 220° |
| 2026-05-05 00:41 | 33.24281 | -79.83849 | 43092 ft | 404 kts | 220° |
| 2026-05-05 00:41 | 33.19706 | -79.87583 | 43092 ft | 404 kts | 221° |
| 2026-05-05 00:42 | 33.15061 | -79.91373 | 43092 ft | 404 kts | 220° |
| 2026-05-05 00:42 | 33.10409 | -79.95161 | 43093 ft | 405 kts | 220° |
| 2026-05-05 00:43 | 33.05755 | -79.98948 | 43098 ft | 405 kts | 220° |
| 2026-05-05 00:43 | 33.01098 | -80.02730 | 43098 ft | 405 kts | 220° |
| 2026-05-05 00:44 | 32.96436 | -80.06512 | 43100 ft | 405 kts | 220° |
| 2026-05-05 00:44 | 32.91743 | -80.10316 | 43101 ft | 405 kts | 220° |
| 2026-05-05 00:45 | 32.87075 | -80.14091 | 43098 ft | 405 kts | 220° |
| 2026-05-05 00:45 | 32.82413 | -80.17860 | 43099 ft | 405 kts | 220° |
| 2026-05-05 00:46 | 32.77743 | -80.21630 | 43090 ft | 406 kts | 220° |
| 2026-05-05 00:46 | 32.73077 | -80.25390 | 43097 ft | 405 kts | 221° |
| 2026-05-05 00:47 | 32.68411 | -80.29147 | 43092 ft | 405 kts | 221° |
| 2026-05-05 00:47 | 32.63745 | -80.32899 | 43091 ft | 405 kts | 220° |
| 2026-05-05 00:48 | 32.59075 | -80.36649 | 43090 ft | 405 kts | 221° |
| 2026-05-05 00:48 | 32.54199 | -80.40095 | 43089 ft | 409 kts | 216° |
| 2026-05-05 00:49 | 32.49265 | -80.43443 | 43084 ft | 408 kts | 217° |
| 2026-05-05 00:49 | 32.44340 | -80.46762 | 43085 ft | 407 kts | 217° |
| 2026-05-05 00:50 | 32.39412 | -80.50082 | 43089 ft | 407 kts | 217° |
| 2026-05-05 00:50 | 32.34493 | -80.53397 | 43087 ft | 407 kts | 217° |
| 2026-05-05 00:51 | 32.29567 | -80.56707 | 43085 ft | 408 kts | 217° |
| 2026-05-05 00:51 | 32.24627 | -80.60023 | 43080 ft | 408 kts | 217° |
| 2026-05-05 00:52 | 32.19703 | -80.63326 | 43083 ft | 407 kts | 217° |
| 2026-05-05 00:52 | 32.14783 | -80.66622 | 43076 ft | 406 kts | 217° |
| 2026-05-05 00:53 | 32.09869 | -80.69909 | 43078 ft | 406 kts | 217° |
| 2026-05-05 00:53 | 32.04955 | -80.73192 | 43068 ft | 406 kts | 217° |
| 2026-05-05 00:54 | 32.00046 | -80.76468 | 42862 ft | 405 kts | 217° |
| 2026-05-05 00:54 | 31.97626 | -80.78082 | 42599 ft | 405 kts | 217° |
| 2026-05-05 00:54 | 31.95178 | -80.79712 | 42319 ft | 405 kts | 217° |
| 2026-05-05 00:54 | 31.92727 | -80.81343 | 42041 ft | 405 kts | 217° |
| 2026-05-05 00:55 | 31.90275 | -80.82976 | 41765 ft | 405 kts | 217° |
| 2026-05-05 00:55 | 31.87820 | -80.84607 | 41487 ft | 405 kts | 217° |
| 2026-05-05 00:55 | 31.85367 | -80.86236 | 41219 ft | 405 kts | 217° |
| 2026-05-05 00:55 | 31.82914 | -80.87867 | 40944 ft | 405 kts | 217° |
| 2026-05-05 00:56 | 31.80425 | -80.89520 | 40662 ft | 405 kts | 217° |
| 2026-05-05 00:56 | 31.77967 | -80.91150 | 40385 ft | 406 kts | 217° |
| 2026-05-05 00:56 | 31.75504 | -80.92783 | 40037 ft | 408 kts | 217° |
| 2026-05-05 00:56 | 31.73027 | -80.94425 | 39712 ft | 409 kts | 218° |
| 2026-05-05 00:57 | 31.70552 | -80.96061 | 39472 ft | 408 kts | 218° |
| 2026-05-05 00:57 | 31.68077 | -80.97700 | 39195 ft | 409 kts | 218° |
| 2026-05-05 00:57 | 31.65600 | -80.99338 | 38929 ft | 409 kts | 218° |
| 2026-05-05 00:57 | 31.63121 | -81.00976 | 38645 ft | 409 kts | 217° |
| 2026-05-05 00:58 | 31.60642 | -81.02614 | 38310 ft | 409 kts | 217° |
| 2026-05-05 00:58 | 31.58996 | -81.03701 | 38085 ft | 410 kts | 217° |
| 2026-05-05 00:58 | 31.56446 | -81.05237 | 37739 ft | 413 kts | 215° |
| 2026-05-05 00:58 | 31.53899 | -81.06782 | 37403 ft | 412 kts | 216° |
| 2026-05-05 00:59 | 31.51360 | -81.08357 | 37068 ft | 413 kts | 216° |
| 2026-05-05 00:59 | 31.48807 | -81.09907 | 36684 ft | 414 kts | 215° |
| 2026-05-05 00:59 | 31.46244 | -81.11436 | 36380 ft | 413 kts | 215° |
| 2026-05-05 00:59 | 31.43687 | -81.12975 | 36069 ft | 413 kts | 216° |
| 2026-05-05 01:00 | 31.41139 | -81.14524 | 35738 ft | 413 kts | 216° |
| 2026-05-05 01:00 | 31.38583 | -81.16073 | 35392 ft | 414 kts | 215° |
| 2026-05-05 01:00 | 31.36018 | -81.17616 | 35058 ft | 415 kts | 215° |
| 2026-05-05 01:00 | 31.33447 | -81.19163 | 34766 ft | 416 kts | 215° |
| 2026-05-05 01:01 | 31.30879 | -81.20716 | 34555 ft | 416 kts | 215° |
| 2026-05-05 01:01 | 31.28305 | -81.22267 | 34351 ft | 416 kts | 215° |
| 2026-05-05 01:01 | 31.25732 | -81.23812 | 34143 ft | 416 kts | 215° |
| 2026-05-05 01:01 | 31.23155 | -81.25360 | 33899 ft | 417 kts | 215° |
| 2026-05-05 01:02 | 31.20568 | -81.26908 | 33576 ft | 418 kts | 214° |
| 2026-05-05 01:02 | 31.17766 | -81.28020 | 33296 ft | 436 kts | 199° |
| 2026-05-05 01:02 | 31.14689 | -81.28290 | 32992 ft | 450 kts | 189° |
| 2026-05-05 01:02 | 31.11540 | -81.28259 | 32593 ft | 455 kts | 187° |
| 2026-05-05 01:03 | 31.08375 | -81.28212 | 32412 ft | 452 kts | 188° |
| 2026-05-05 01:03 | 31.05239 | -81.28208 | 32215 ft | 450 kts | 188° |
| 2026-05-05 01:03 | 31.02107 | -81.28227 | 31966 ft | 451 kts | 188° |
| 2026-05-05 01:03 | 30.98963 | -81.28220 | 31713 ft | 452 kts | 187° |
| 2026-05-05 01:04 | 30.95811 | -81.28197 | 31454 ft | 452 kts | 187° |
| 2026-05-05 01:04 | 30.89523 | -81.28183 | 30955 ft | 452 kts | 188° |
| 2026-05-05 01:04 | 30.86382 | -81.28179 | 30805 ft | 450 kts | 188° |
| 2026-05-05 01:05 | 30.83256 | -81.28168 | 30650 ft | 449 kts | 188° |
| 2026-05-05 01:05 | 30.80134 | -81.28156 | 30498 ft | 448 kts | 188° |
| 2026-05-05 01:05 | 30.77019 | -81.28151 | 30352 ft | 447 kts | 188° |
| 2026-05-05 01:05 | 30.73957 | -81.28144 | 30207 ft | 445 kts | 188° |
| 2026-05-05 01:06 | 30.70864 | -81.28134 | 29962 ft | 444 kts | 188° |
| 2026-05-05 01:06 | 30.67778 | -81.28126 | 29699 ft | 442 kts | 188° |
| 2026-05-05 01:06 | 30.64709 | -81.28118 | 29343 ft | 440 kts | 188° |
| 2026-05-05 01:06 | 30.61649 | -81.28110 | 29055 ft | 438 kts | 188° |
| 2026-05-05 01:07 | 30.58601 | -81.28015 | 28725 ft | 439 kts | 185° |
| 2026-05-05 01:07 | 30.55558 | -81.27844 | 28271 ft | 436 kts | 185° |
| 2026-05-05 01:07 | 30.52543 | -81.27710 | 27808 ft | 433 kts | 186° |
| 2026-05-05 01:07 | 30.49541 | -81.27570 | 27355 ft | 430 kts | 185° |
| 2026-05-05 01:08 | 30.46565 | -81.27410 | 26849 ft | 427 kts | 185° |
| 2026-05-05 01:08 | 30.43605 | -81.27249 | 26356 ft | 424 kts | 185° |
| 2026-05-05 01:08 | 30.40667 | -81.27105 | 26005 ft | 421 kts | 184° |
| 2026-05-05 01:08 | 30.37745 | -81.26961 | 25681 ft | 419 kts | 184° |
| 2026-05-05 01:09 | 30.34839 | -81.26810 | 25372 ft | 417 kts | 184° |
| 2026-05-05 01:09 | 30.31909 | -81.26659 | 25073 ft | 415 kts | 184° |
| 2026-05-05 01:09 | 30.29026 | -81.26512 | 24770 ft | 413 kts | 184° |
| 2026-05-05 01:09 | 30.26169 | -81.26364 | 24332 ft | 411 kts | 183° |
| 2026-05-05 01:10 | 30.23320 | -81.26193 | 23910 ft | 409 kts | 182° |
| 2026-05-05 01:10 | 30.20487 | -81.26002 | 23478 ft | 406 kts | 182° |
| 2026-05-05 01:10 | 30.17679 | -81.25824 | 22934 ft | 402 kts | 182° |
| 2026-05-05 01:10 | 30.14894 | -81.25661 | 22354 ft | 399 kts | 182° |
| 2026-05-05 01:11 | 30.12128 | -81.25495 | 21809 ft | 396 kts | 182° |
| 2026-05-05 01:11 | 30.09419 | -81.25325 | 21261 ft | 393 kts | 182° |
| 2026-05-05 01:11 | 30.06660 | -81.25153 | 20708 ft | 390 kts | 182° |
| 2026-05-05 01:11 | 30.03959 | -81.24989 | 20203 ft | 387 kts | 181° |
| 2026-05-05 01:12 | 30.01282 | -81.24827 | 19675 ft | 384 kts | 181° |
| 2026-05-05 01:12 | 29.98662 | -81.24665 | 19119 ft | 380 kts | 181° |
| 2026-05-05 01:12 | 29.95997 | -81.24500 | 18489 ft | 377 kts | 181° |
| 2026-05-05 01:12 | 29.93422 | -81.24343 | 17825 ft | 373 kts | 181° |
| 2026-05-05 01:13 | 29.90808 | -81.24242 | 17170 ft | 369 kts | 183° |
| 2026-05-05 01:13 | 29.88257 | -81.24160 | 16527 ft | 366 kts | 181° |
| 2026-05-05 01:13 | 29.85725 | -81.24027 | 15906 ft | 362 kts | 180° |
| 2026-05-05 01:13 | 29.83221 | -81.23925 | 15298 ft | 359 kts | 181° |
| 2026-05-05 01:14 | 29.80736 | -81.23850 | 14707 ft | 356 kts | 181° |
| 2026-05-05 01:14 | 29.78269 | -81.23766 | 14157 ft | 353 kts | 180° |
| 2026-05-05 01:14 | 29.75861 | -81.23673 | 13573 ft | 350 kts | 180° |
| 2026-05-05 01:14 | 29.73434 | -81.23581 | 12974 ft | 346 kts | 180° |
| 2026-05-05 01:15 | 29.71811 | -81.23523 | 12567 ft | 345 kts | 180° |
| 2026-05-05 01:15 | 29.68666 | -81.23411 | 12065 ft | 330 kts | 180° |
| 2026-05-05 01:15 | 29.66477 | -81.23331 | 11829 ft | 305 kts | 180° |
| 2026-05-05 01:15 | 29.64389 | -81.23236 | 11314 ft | 302 kts | 179° |
| 2026-05-05 01:16 | 29.62307 | -81.23103 | 11055 ft | 298 kts | 179° |
| 2026-05-05 01:16 | 29.60243 | -81.22978 | 10733 ft | 296 kts | 180° |
| 2026-05-05 01:16 | 29.58189 | -81.22870 | 10438 ft | 295 kts | 180° |
| 2026-05-05 01:16 | 29.56144 | -81.22760 | 10144 ft | 294 kts | 179° |
| 2026-05-05 01:17 | 29.54105 | -81.22645 | 9852 ft | 292 kts | 180° |
| 2026-05-05 01:17 | 29.52080 | -81.22532 | 9515 ft | 291 kts | 179° |
| 2026-05-05 01:17 | 29.50057 | -81.22421 | 9296 ft | 291 kts | 179° |
| 2026-05-05 01:17 | 29.48016 | -81.22307 | 9166 ft | 289 kts | 179° |
| 2026-05-05 01:18 | 29.46003 | -81.22194 | 9026 ft | 289 kts | 179° |
| 2026-05-05 01:18 | 29.43997 | -81.22085 | 8887 ft | 288 kts | 179° |
| 2026-05-05 01:18 | 29.41995 | -81.21974 | 8753 ft | 288 kts | 179° |
| 2026-05-05 01:18 | 29.40001 | -81.21863 | 8633 ft | 287 kts | 179° |
| 2026-05-05 01:19 | 29.38007 | -81.21754 | 8510 ft | 287 kts | 179° |
| 2026-05-05 01:19 | 29.36015 | -81.21643 | 8385 ft | 286 kts | 179° |
| 2026-05-05 01:19 | 29.34027 | -81.21564 | 8260 ft | 285 kts | 180° |
| 2026-05-05 01:19 | 29.32045 | -81.21494 | 8138 ft | 285 kts | 180° |
| 2026-05-05 01:20 | 29.30064 | -81.21411 | 7996 ft | 285 kts | 179° |
| 2026-05-05 01:20 | 29.28087 | -81.21325 | 7853 ft | 284 kts | 179° |
| 2026-05-05 01:20 | 29.26114 | -81.21243 | 7734 ft | 283 kts | 179° |
| 2026-05-05 01:20 | 29.24149 | -81.21133 | 7621 ft | 283 kts | 176° |
| 2026-05-05 01:21 | 29.22194 | -81.20971 | 7492 ft | 281 kts | 178° |
| 2026-05-05 01:21 | 29.20241 | -81.20876 | 7335 ft | 280 kts | 179° |
| 2026-05-05 01:21 | 29.18320 | -81.20762 | 7198 ft | 280 kts | 178° |
| 2026-05-05 01:21 | 29.16351 | -81.20620 | 7055 ft | 279 kts | 177° |
| 2026-05-05 01:22 | 29.14441 | -81.20485 | 6919 ft | 278 kts | 178° |
| 2026-05-05 01:22 | 29.12514 | -81.20358 | 6793 ft | 277 kts | 178° |
| 2026-05-05 01:22 | 29.10561 | -81.20324 | 6646 ft | 276 kts | 181° |
| 2026-05-05 01:22 | 29.08668 | -81.20307 | 6510 ft | 276 kts | 180° |
| 2026-05-05 01:23 | 29.06759 | -81.20264 | 6253 ft | 274 kts | 180° |
| 2026-05-05 01:23 | 29.04831 | -81.20243 | 5807 ft | 272 kts | 181° |
| 2026-05-05 01:23 | 29.02938 | -81.20244 | 5273 ft | 271 kts | 183° |
| 2026-05-05 01:23 | 29.01130 | -81.20681 | 5020 ft | 258 kts | 198° |
| 2026-05-05 01:24 | 28.99459 | -81.21205 | 5005 ft | 238 kts | 196° |
| 2026-05-05 01:24 | 28.97920 | -81.21652 | 5005 ft | 223 kts | 196° |
| 2026-05-05 01:24 | 28.96421 | -81.22100 | 5001 ft | 224 kts | 196° |
| 2026-05-05 01:24 | 28.94899 | -81.22567 | 5001 ft | 229 kts | 197° |
| 2026-05-05 01:25 | 28.93345 | -81.23042 | 5002 ft | 233 kts | 197° |
| 2026-05-05 01:25 | 28.91773 | -81.23521 | 4997 ft | 234 kts | 198° |
| 2026-05-05 01:25 | 28.90216 | -81.24070 | 5001 ft | 235 kts | 197° |
| 2026-05-05 01:25 | 28.88621 | -81.24520 | 4996 ft | 236 kts | 199° |
| 2026-05-05 01:26 | 28.87208 | -81.25463 | 4965 ft | 238 kts | 219° |
| 2026-05-05 01:26 | 28.85947 | -81.26681 | 4998 ft | 236 kts | 222° |
| 2026-05-05 01:26 | 28.84734 | -81.27887 | 4933 ft | 226 kts | 223° |
| 2026-05-05 01:26 | 28.83553 | -81.29064 | 4471 ft | 226 kts | 221° |
| 2026-05-05 01:27 | 28.82386 | -81.30266 | 4020 ft | 227 kts | 222° |
| 2026-05-05 01:27 | 28.81226 | -81.31495 | 4003 ft | 227 kts | 222° |
| 2026-05-05 01:27 | 28.80086 | -81.32725 | 3992 ft | 225 kts | 222° |
| 2026-05-05 01:27 | 28.78953 | -81.33952 | 3984 ft | 224 kts | 222° |
| 2026-05-05 01:28 | 28.77830 | -81.35170 | 3989 ft | 222 kts | 222° |
| 2026-05-05 01:28 | 28.76714 | -81.36373 | 3980 ft | 220 kts | 223° |
| 2026-05-05 01:28 | 28.75594 | -81.37579 | 3988 ft | 223 kts | 222° |
| 2026-05-05 01:28 | 28.74464 | -81.38804 | 3950 ft | 224 kts | 222° |
| 2026-05-05 01:29 | 28.73344 | -81.40027 | 3832 ft | 223 kts | 222° |
| 2026-05-05 01:29 | 28.72207 | -81.41264 | 3626 ft | 224 kts | 222° |
| 2026-05-05 01:29 | 28.71087 | -81.42493 | 3428 ft | 223 kts | 221° |
| 2026-05-05 01:29 | 28.69975 | -81.43735 | 3171 ft | 225 kts | 222° |
| 2026-05-05 01:30 | 28.68858 | -81.44996 | 2960 ft | 226 kts | 222° |
| 2026-05-05 01:30 | 28.67751 | -81.46267 | 2743 ft | 227 kts | 222° |
| 2026-05-05 01:30 | 28.66644 | -81.47552 | 2532 ft | 228 kts | 221° |
| 2026-05-05 01:30 | 28.65523 | -81.48864 | 2279 ft | 228 kts | 222° |
| 2026-05-05 01:31 | 28.64423 | -81.50173 | 2052 ft | 229 kts | 223° |
| 2026-05-05 01:31 | 28.63325 | -81.51483 | 1994 ft | 230 kts | 222° |
| 2026-05-05 01:31 | 28.62218 | -81.52810 | 1997 ft | 232 kts | 223° |
| 2026-05-05 01:31 | 28.61095 | -81.54145 | 1996 ft | 236 kts | 223° |
| 2026-05-05 01:32 | 28.59963 | -81.55513 | 2004 ft | 238 kts | 223° |
| 2026-05-05 01:32 | 28.58625 | -81.56539 | 1975 ft | 229 kts | 191° |
| 2026-05-05 01:32 | 28.57138 | -81.56495 | 1981 ft | 203 kts | 158° |
| 2026-05-05 01:32 | 28.55884 | -81.55946 | 1981 ft | 184 kts | 153° |
| 2026-05-05 01:33 | 28.54751 | -81.55408 | 1975 ft | 171 kts | 152° |
| 2026-05-05 01:33 | 28.53676 | -81.54900 | 1979 ft | 169 kts | 152° |
| 2026-05-05 01:33 | 28.52565 | -81.54365 | 1980 ft | 178 kts | 152° |
| 2026-05-05 01:33 | 28.51397 | -81.53800 | 1986 ft | 187 kts | 152° |
| 2026-05-05 01:34 | 28.50180 | -81.53208 | 1989 ft | 193 kts | 151° |
| 2026-05-05 01:34 | 28.48958 | -81.52564 | 2055 ft | 194 kts | 148° |
| 2026-05-05 01:34 | 28.48215 | -81.52016 | 2112 ft | 191 kts | 133° |
| 2026-05-05 01:34 | 28.47595 | -81.50768 | 2303 ft | 180 kts | 96° |
| 2026-05-05 01:35 | 28.47890 | -81.49423 | 2397 ft | 184 kts | 56° |
| 2026-05-05 01:35 | 28.48903 | -81.48469 | 2377 ft | 195 kts | 40° |
| 2026-05-05 01:35 | 28.49957 | -81.47505 | 2454 ft | 191 kts | 50° |
| 2026-05-05 01:35 | 28.50587 | -81.46232 | 2453 ft | 179 kts | 77° |
| 2026-05-05 01:36 | 28.50718 | -81.44843 | 2306 ft | 176 kts | 90° |
| 2026-05-05 01:36 | 28.50758 | -81.43480 | 2157 ft | 175 kts | 84° |
| 2026-05-05 01:36 | 28.51075 | -81.42148 | 1863 ft | 173 kts | 68° |
| 2026-05-05 01:36 | 28.51584 | -81.40958 | 1538 ft | 157 kts | 67° |
| 2026-05-05 01:37 | 28.52017 | -81.39887 | 1297 ft | 139 kts | 69° |
| 2026-05-05 01:37 | 28.52379 | -81.38932 | 1082 ft | 129 kts | 69° |
| 2026-05-05 01:37 | 28.52720 | -81.38000 | 854 ft | 127 kts | 69° |
| 2026-05-05 01:37 | 28.53084 | -81.37096 | 737 ft | 126 kts | 67° |
| 2026-05-05 01:38 | 28.53423 | -81.36166 | 593 ft | 128 kts | 67° |
| 2026-05-05 01:38 | 28.53783 | -81.35256 | 431 ft | 126 kts | 68° |
| 2026-05-05 01:38 | 28.54134 | -81.34326 | 220 ft | 129 kts | 67° |
| 2026-05-05 01:38 | 28.54479 | -81.33416 | 114 ft | 118 kts | 66° |
| 2026-05-05 01:39 | 28.54724 | -81.32762 | 115 ft | 63 kts | 66° |
| 2026-05-05 01:39 | 28.54859 | -81.32410 | 117 ft | 31 kts | 66° |
| 2026-05-05 01:39 | 28.54916 | -81.32301 | 119 ft | 13 kts | 19° |
| 2026-05-05 01:39 | 28.54992 | -81.32326 | 119 ft | 3 kts | 336° |
| 2026-05-05 01:40 | 28.54994 | -81.32327 | 119 ft | 1 kts | 336° |
| 2026-05-05 01:40 | 28.55018 | -81.32340 | 116 ft | 7 kts | 321° |
| 2026-05-05 01:40 | 28.55007 | -81.32416 | 115 ft | 12 kts | 247° |
| 2026-05-05 01:40 | 28.54975 | -81.32503 | 115 ft | 15 kts | 246° |
| 2026-05-05 01:41 | 28.54936 | -81.32606 | 111 ft | 10 kts | 246° |
| 2026-05-05 01:41 | 28.54906 | -81.32684 | 112 ft | 12 kts | 247° |
| 2026-05-05 01:41 | 28.54868 | -81.32786 | 111 ft | 16 kts | 248° |
| 2026-05-05 01:41 | 28.54822 | -81.32905 | 112 ft | 15 kts | 246° |
| 2026-05-05 01:42 | 28.54775 | -81.33028 | 113 ft | 17 kts | 248° |
| 2026-05-05 01:42 | 28.54737 | -81.33129 | 112 ft | 13 kts | 246° |
| 2026-05-05 01:42 | 28.54718 | -81.33242 | 114 ft | 17 kts | 264° |
| 2026-05-05 01:42 | 28.54709 | -81.33350 | 112 ft | 13 kts | 264° |
| 2026-05-05 01:43 | 28.54697 | -81.33468 | 112 ft | 16 kts | 264° |
| 2026-05-05 01:43 | 28.54688 | -81.33569 | 113 ft | 8 kts | 264° |
| 2026-05-05 01:43 | 28.54687 | -81.33605 | 113 ft | 6 kts | 286° |
| 2026-05-05 01:43 | 28.54722 | -81.33654 | 113 ft | 10 kts | 311° |
| 2026-05-05 01:44 | 28.54778 | -81.33714 | 112 ft | 13 kts | 326° |
| 2026-05-05 01:44 | 28.54833 | -81.33780 | 114 ft | 6 kts | 291° |
| 2026-05-05 01:44 | 28.54834 | -81.33783 | 115 ft | 0 kts | 291° |